Time;durP1;ratioP1;P1;durP2;ratioP2;P2;SDS_P1;SDS_P2;PMS_P1;PMS_P2;Temp;Humidity;BMP_temperature;BMP_pressure;BME280_temperature;BME280_humidity;BME280_pressure;Samples;Min_cycle;Max_cycle;Signal;HPM_P1;HPM_P2
2023/02/27 00:01:25;;;;;;;15.07;2.60;;;25.80;71.00;;;;;;5068987;28;20194;-72
2023/02/27 00:03:59;;;;;;;17.27;2.63;;;26.00;70.20;;;;;;5065191;28;20220;-72
2023/02/27 00:06:30;;;;;;;9.93;2.87;;;26.00;70.00;;;;;;5072784;28;20244;-74
2023/02/27 00:08:57;;;;;;;13.13;2.53;;;26.20;70.00;;;;;;5070162;28;20178;-71
2023/02/27 00:11:37;;;;;;;12.77;3.00;;;26.30;69.40;;;;;;5072484;28;20272;-73
2023/02/27 00:14:05;;;;;;;14.50;2.80;;;26.20;69.10;;;;;;5070458;28;20661;-71
2023/02/27 00:16:33;;;;;;;13.57;2.43;;;26.00;69.50;;;;;;5071135;28;20211;-70
2023/02/27 00:19:03;;;;;;;13.60;2.43;;;26.10;70.20;;;;;;5070874;28;20201;-71
2023/02/27 00:21:31;;;;;;;15.10;3.33;;;26.00;70.10;;;;;;5062424;28;20191;-71
2023/02/27 00:23:59;;;;;;;12.50;3.17;;;26.10;70.10;;;;;;5064894;28;20237;-71
2023/02/27 00:26:26;;;;;;;13.40;2.83;;;25.90;69.70;;;;;;5067466;28;20574;-73
2023/02/27 00:28:54;;;;;;;16.00;2.67;;;25.60;70.90;;;;;;5067663;28;20187;-68
2023/02/27 00:31:21;;;;;;;11.63;2.30;;;25.60;71.10;;;;;;5069685;28;20620;-69
2023/02/27 00:33:49;;;;;;;10.40;2.87;;;25.60;71.40;;;;;;5069781;28;20202;-69
2023/02/27 00:36:16;;;;;;;10.93;2.70;;;25.60;71.50;;;;;;5068447;28;20189;-70
2023/02/27 00:38:43;;;;;;;16.00;6.27;;;25.60;71.30;;;;;;5070980;28;20175;-71
2023/02/27 00:41:11;;;;;;;13.40;3.83;;;25.50;71.50;;;;;;5070401;28;20203;-72
2023/02/27 00:43:38;;;;;;;10.23;2.60;;;25.30;71.90;;;;;;5074048;28;20559;-70
2023/02/27 00:46:05;;;;;;;12.40;3.60;;;25.30;72.00;;;;;;5072391;28;20331;-71
2023/02/27 00:48:33;;;;;;;15.87;2.90;;;25.30;72.40;;;;;;5069289;28;20183;-72
2023/02/27 00:51:00;;;;;;;15.50;2.27;;;25.40;72.30;;;;;;5068720;28;20257;-71
2023/02/27 00:53:27;;;;;;;10.10;2.80;;;25.50;71.20;;;;;;5073411;28;20185;-73
2023/02/27 00:55:55;;;;;;;11.30;2.30;;;25.40;71.40;;;;;;5074133;28;20266;-72
2023/02/27 00:58:22;;;;;;;8.27;2.30;;;25.50;71.90;;;;;;5070794;28;20183;-70
2023/02/27 01:00:49;;;;;;;9.57;1.97;;;25.60;71.00;;;;;;5070190;28;20179;-70
2023/02/27 01:03:17;;;;;;;10.50;2.97;;;25.70;71.30;;;;;;5072843;28;20243;-70
2023/02/27 01:05:44;;;;;;;34.90;21.13;;;25.80;71.00;;;;;;5074426;28;20222;-69
2023/02/27 01:08:11;;;;;;;18.03;3.50;;;26.00;70.70;;;;;;5067778;28;20554;-68
2023/02/27 01:10:39;;;;;;;9.43;2.90;;;26.20;69.10;;;;;;5072848;28;20267;-67
2023/02/27 01:13:06;;;;;;;14.53;2.73;;;26.30;69.30;;;;;;5062795;28;20191;-71
2023/02/27 01:15:33;;;;;;;17.03;2.57;;;26.40;69.30;;;;;;5073280;28;20167;-70
2023/02/27 01:18:01;;;;;;;12.90;2.63;;;26.60;68.80;;;;;;5074012;28;20213;-68
2023/02/27 01:20:28;;;;;;;14.00;2.47;;;27.20;66.40;;;;;;5074488;28;20214;-67
2023/02/27 01:22:56;;;;;;;14.90;2.70;;;27.30;65.40;;;;;;5067843;28;20211;-70
2023/02/27 01:25:23;;;;;;;12.20;2.27;;;27.20;65.50;;;;;;5071818;28;20218;-73
2023/02/27 01:27:50;;;;;;;10.33;2.40;;;27.10;66.30;;;;;;5073711;28;20539;-70
2023/02/27 01:30:18;;;;;;;12.73;2.70;;;27.10;66.30;;;;;;5074029;28;20202;-68
2023/02/27 01:32:45;;;;;;;10.13;2.30;;;26.90;66.80;;;;;;5068327;28;20172;-72
2023/02/27 01:35:12;;;;;;;11.43;2.23;;;26.90;66.80;;;;;;5073748;28;20183;-69
2023/02/27 01:37:40;;;;;;;11.23;2.17;;;27.00;66.80;;;;;;5073687;28;20186;-68
2023/02/27 01:40:09;;;;;;;10.87;2.20;;;27.00;66.70;;;;;;5073872;28;20179;-70
2023/02/27 01:42:36;;;;;;;18.33;3.13;;;27.10;66.80;;;;;;5070233;28;20250;-68
2023/02/27 01:45:13;;;;;;;11.07;1.80;;;27.20;65.60;;;;;;5070600;28;20416;-71
2023/02/27 01:47:44;;;;;;;18.00;2.77;;;27.30;65.70;;;;;;5069853;28;20186;-74
2023/02/27 01:50:13;;;;;;;14.93;2.37;;;27.40;64.90;;;;;;5089364;28;20253;-75
2023/02/27 01:52:41;;;;;;;9.83;2.23;;;27.30;65.50;;;;;;5073872;28;20180;-71
2023/02/27 01:55:11;;;;;;;9.37;2.00;;;27.30;65.40;;;;;;5070206;28;20198;-73
2023/02/27 01:57:40;;;;;;;12.57;2.33;;;27.40;64.70;;;;;;5073908;28;20187;-73
2023/02/27 02:00:08;;;;;;;7.43;2.23;;;27.50;64.90;;;;;;5071365;28;20232;-70
2023/02/27 02:02:56;;;;;;;12.13;2.53;;;27.80;64.20;;;;;;5073805;28;20179;-70
2023/02/27 02:05:24;;;;;;;12.67;2.70;;;28.10;64.00;;;;;;5068367;28;20223;-71
2023/02/27 02:07:52;;;;;;;9.70;2.73;;;28.30;63.40;;;;;;5072019;28;20182;-72
2023/02/27 02:10:20;;;;;;;10.87;2.50;;;28.20;62.90;;;;;;5073404;28;20664;-72
2023/02/27 02:12:49;;;;;;;13.03;2.47;;;28.00;63.00;;;;;;5072579;28;20186;-71
2023/02/27 02:15:16;;;;;;;19.17;2.10;;;27.80;64.70;;;;;;5072242;28;20187;-71
2023/02/27 02:18:05;;;;;;;14.87;3.20;;;27.90;64.40;;;;;;5072145;28;20649;-72
2023/02/27 02:20:54;;;;;;;11.13;2.50;;;28.00;63.70;;;;;;5073058;28;20175;-72
2023/02/27 02:23:58;;;;;;;10.60;2.10;;;28.30;63.30;;;;;;5070215;28;20203;-71
2023/02/27 02:26:36;;;;;;;17.47;2.67;;;28.30;63.40;;;;;;5071337;28;20681;-68
2023/02/27 02:29:16;;;;;;;6.23;1.90;;;27.80;64.40;;;;;;5072176;28;20183;-69
2023/02/27 02:32:08;;;;;;;13.00;2.47;;;27.90;64.50;;;;;;5072457;28;20193;-71
2023/02/27 02:35:13;;;;;;;10.50;2.33;;;28.10;64.50;;;;;;5066358;28;20211;-70
2023/02/27 02:37:53;;;;;;;8.90;2.50;;;28.30;63.40;;;;;;5067096;28;20692;-73
2023/02/27 02:40:31;;;;;;;10.87;2.40;;;28.40;62.90;;;;;;5069983;28;20219;-68
2023/02/27 02:43:36;;;;;;;13.97;2.73;;;28.70;61.90;;;;;;5070298;28;20191;-67
2023/02/27 02:46:23;;;;;;;11.53;2.40;;;28.80;61.20;;;;;;5070821;28;20261;-66
2023/02/27 02:49:02;;;;;;;10.90;2.20;;;28.80;61.20;;;;;;5068836;28;20180;-67
2023/02/27 02:51:44;;;;;;;13.13;2.50;;;28.70;62.20;;;;;;5069075;28;20182;-66
2023/02/27 02:54:26;;;;;;;12.50;2.30;;;29.30;60.90;;;;;;5068312;28;20179;-65
2023/02/27 02:57:18;;;;;;;8.33;1.87;;;29.50;59.40;;;;;;5068161;28;20175;-67
2023/02/27 02:59:56;;;;;;;9.63;2.20;;;29.20;60.20;;;;;;5067870;28;20676;-67
2023/02/27 03:02:32;;;;;;;9.57;2.40;;;29.50;59.70;;;;;;5065280;28;20175;-69
2023/02/27 03:05:10;;;;;;;17.63;2.40;;;29.50;59.40;;;;;;5065311;28;20218;-69
2023/02/27 03:07:53;;;;;;;11.10;2.17;;;29.30;60.50;;;;;;5068021;28;20278;-68
2023/02/27 03:10:40;;;;;;;11.20;2.20;;;28.90;61.00;;;;;;5070133;28;20656;-72
2023/02/27 03:13:20;;;;;;;7.10;2.20;;;28.20;63.00;;;;;;5060309;28;20200;-73
2023/02/27 03:15:53;;;;;;;13.73;2.17;;;28.00;63.60;;;;;;5068391;28;20198;-71
2023/02/27 03:18:29;;;;;;;10.80;3.03;;;27.90;63.90;;;;;;5068647;28;20270;-68
2023/02/27 03:21:11;;;;;;;15.63;2.60;;;27.70;64.40;;;;;;5068464;28;20187;-69
2023/02/27 03:23:44;;;;;;;10.37;2.20;;;27.60;64.50;;;;;;5067484;28;20183;-69
2023/02/27 03:26:16;;;;;;;11.57;2.33;;;27.50;64.70;;;;;;5069005;28;20600;-70
2023/02/27 03:29:08;;;;;;;10.33;2.10;;;27.50;64.60;;;;;;5069669;28;20248;-72
2023/02/27 03:31:50;;;;;;;11.07;2.03;;;27.20;65.60;;;;;;5065833;28;20262;-72
2023/02/27 03:34:32;;;;;;;13.83;2.47;;;27.10;65.80;;;;;;5071351;28;20175;-72
2023/02/27 03:37:27;;;;;;;6.20;2.03;;;27.00;67.00;;;;;;5070492;28;20183;-71
2023/02/27 03:40:05;;;;;;;17.47;3.23;;;26.90;66.70;;;;;;5067820;28;20175;-71
2023/02/27 03:42:41;;;;;;;9.73;2.00;;;26.90;67.10;;;;;;5070029;28;20274;-70
2023/02/27 03:45:32;;;;;;;9.40;2.50;;;26.60;67.90;;;;;;5066777;28;20187;-68
2023/02/27 03:48:01;;;;;;;10.80;2.33;;;26.60;68.30;;;;;;5063813;28;20187;-73
2023/02/27 03:50:28;;;;;;;11.10;2.40;;;26.40;68.50;;;;;;5069723;28;20195;-70
2023/02/27 03:52:56;;;;;;;10.47;2.60;;;26.20;69.30;;;;;;5061988;28;20673;-72
2023/02/27 03:55:32;;;;;;;12.00;2.77;;;26.10;69.60;;;;;;5069298;28;20183;-67
2023/02/27 03:58:01;;;;;;;9.37;2.77;;;26.10;69.70;;;;;;5067116;28;20183;-68
2023/02/27 04:00:29;;;;;;;9.47;3.00;;;26.10;69.60;;;;;;5067108;28;20187;-69
2023/02/27 04:02:59;;;;;;;12.87;2.73;;;26.10;69.80;;;;;;5059578;28;20205;-71
2023/02/27 04:05:28;;;;;;;12.40;2.60;;;26.00;69.80;;;;;;5068506;28;20227;-72
2023/02/27 04:08:29;;;;;;;15.87;2.70;;;26.10;70.00;;;;;;5063231;28;20186;-71
2023/02/27 04:11:08;;;;;;;14.00;2.80;;;26.20;69.80;;;;;;5063982;28;20194;-71
2023/02/27 04:13:48;;;;;;;10.20;2.67;;;26.20;69.60;;;;;;5069528;28;20179;-70
2023/02/27 04:16:36;;;;;;;7.47;2.40;;;26.20;69.30;;;;;;5066769;28;20332;-69
2023/02/27 04:19:15;;;;;;;9.97;2.70;;;26.00;69.40;;;;;;5069383;28;20556;-71
2023/02/27 04:22:03;;;;;;;10.83;2.40;;;25.80;70.40;;;;;;5069258;28;20164;-71
2023/02/27 04:24:37;;;;;;;12.97;2.80;;;25.80;70.40;;;;;;5065802;28;20543;-70
2023/02/27 04:27:15;;;;;;;12.20;2.40;;;25.80;70.10;;;;;;5069986;28;20222;-71
2023/02/27 04:30:14;;;;;;;9.40;2.63;;;25.70;69.90;;;;;;5070719;28;20183;-71
2023/02/27 04:33:02;;;;;;;19.03;5.07;;;25.60;70.70;;;;;;5067320;28;20187;-71
2023/02/27 04:35:43;;;;;;;10.00;2.50;;;25.60;71.00;;;;;;5065429;28;20187;-72
2023/02/27 04:38:16;;;;;;;11.23;1.90;;;25.60;71.20;;;;;;5067491;28;20201;-70
2023/02/27 04:40:52;;;;;;;7.63;2.30;;;25.70;70.80;;;;;;5066631;28;20262;-74
2023/02/27 04:43:23;;;;;;;11.13;2.33;;;25.50;70.50;;;;;;5066761;28;20669;-71
2023/02/27 04:45:51;;;;;;;9.50;2.60;;;25.50;70.80;;;;;;5066937;28;20215;-72
2023/02/27 04:48:23;;;;;;;11.37;2.40;;;25.40;70.70;;;;;;5065984;28;20218;-71
2023/02/27 04:51:04;;;;;;;11.90;2.50;;;25.40;70.30;;;;;;5066663;28;20240;-71
2023/02/27 04:53:42;;;;;;;13.23;2.70;;;25.30;70.90;;;;;;5069917;28;20206;-74
2023/02/27 04:56:15;;;;;;;11.13;2.80;;;25.30;71.00;;;;;;5065577;28;20191;-71
2023/02/27 04:58:57;;;;;;;12.57;2.80;;;25.30;70.60;;;;;;5068431;28;20576;-72
2023/02/27 05:01:59;;;;;;;11.20;2.43;;;25.40;70.10;;;;;;5065778;28;20190;-71
2023/02/27 05:04:30;;;;;;;8.20;2.63;;;25.50;70.60;;;;;;5059665;28;20551;-72
2023/02/27 05:07:00;;;;;;;10.07;2.27;;;25.60;70.20;;;;;;5067780;28;20288;-69
2023/02/27 05:09:30;;;;;;;6.97;2.53;;;25.60;70.20;;;;;;5069661;28;20186;-72
2023/02/27 05:12:13;;;;;;;10.70;2.43;;;25.70;70.00;;;;;;5066161;28;20210;-70
2023/02/27 05:14:41;;;;;;;8.90;2.33;;;25.50;70.20;;;;;;5069754;28;20274;-71
2023/02/27 05:17:36;;;;;;;5.60;2.10;;;25.40;71.10;;;;;;5068573;28;20279;-67
2023/02/27 05:20:07;;;;;;;11.03;2.63;;;25.30;70.90;;;;;;5067354;28;20183;-71
2023/02/27 05:22:45;;;;;;;11.07;2.53;;;25.40;71.20;;;;;;5067057;28;20171;-70
2023/02/27 05:25:36;;;;;;;15.17;2.40;;;25.60;70.80;;;;;;5062667;28;20272;-71
2023/02/27 05:28:07;;;;;;;10.30;2.33;;;25.60;70.50;;;;;;5066506;28;20195;-71
2023/02/27 05:31:23;;;;;;;9.73;2.27;;;25.50;70.70;;;;;;5071931;28;20188;-72
2023/02/27 05:34:29;;;;;;;15.27;2.57;;;25.50;71.30;;;;;;5067802;28;20585;-73
2023/02/27 05:37:22;;;;;;;10.27;2.23;;;25.40;71.80;;;;;;5064089;28;20199;-69
2023/02/27 05:39:52;;;;;;;10.87;2.23;;;25.40;71.20;;;;;;5067151;28;20195;-73
2023/02/27 05:42:43;;;;;;;8.37;2.07;;;25.60;71.10;;;;;;5072101;28;20210;-68
2023/02/27 05:45:17;;;;;;;7.93;2.27;;;26.10;69.70;;;;;;5070478;28;20190;-67
2023/02/27 05:47:49;;;;;;;11.30;2.63;;;26.20;69.60;;;;;;5070941;28;20179;-72
2023/02/27 05:50:24;;;;;;;8.93;2.73;;;26.00;69.70;;;;;;5070621;28;20184;-70
2023/02/27 05:52:54;;;;;;;13.53;3.00;;;26.10;69.90;;;;;;5071804;28;20179;-71
2023/02/27 05:55:51;;;;;;;12.90;2.70;;;26.00;70.50;;;;;;5069065;28;20214;-70
2023/02/27 05:58:39;;;;;;;11.90;2.53;;;25.80;70.70;;;;;;5071686;28;20191;-69
2023/02/27 06:01:08;;;;;;;11.30;2.60;;;25.80;70.90;;;;;;5066719;28;20222;-71
2023/02/27 06:03:37;;;;;;;14.33;2.80;;;25.90;70.80;;;;;;5071954;28;20284;-67
2023/02/27 06:06:08;;;;;;;8.20;2.03;;;25.90;70.50;;;;;;5072126;28;20330;-72
2023/02/27 06:08:35;;;;;;;13.77;2.77;;;25.90;70.70;;;;;;5069093;28;20176;-70
2023/02/27 06:11:03;;;;;;;14.13;3.17;;;25.80;71.30;;;;;;5069755;28;20175;-68
2023/02/27 06:13:30;;;;;;;8.43;2.17;;;25.70;71.60;;;;;;5066815;28;20180;-69
2023/02/27 06:15:58;;;;;;;12.37;2.47;;;25.70;71.60;;;;;;5069525;28;20171;-68
2023/02/27 06:18:25;;;;;;;13.70;2.80;;;25.70;71.50;;;;;;5068776;28;20171;-71
2023/02/27 06:20:53;;;;;;;19.23;3.10;;;25.70;70.70;;;;;;5067331;28;20346;-71
2023/02/27 06:23:20;;;;;;;9.87;2.67;;;25.70;70.20;;;;;;5071684;28;20184;-69
2023/02/27 06:25:49;;;;;;;9.87;2.53;;;25.70;70.20;;;;;;5066048;28;20198;-71
2023/02/27 06:28:16;;;;;;;9.83;2.90;;;25.70;69.80;;;;;;5065820;28;20657;-72
2023/02/27 06:30:43;;;;;;;9.47;2.70;;;26.00;69.50;;;;;;5066862;28;20194;-70
2023/02/27 06:33:12;;;;;;;7.70;2.37;;;26.00;68.20;;;;;;5067415;28;20678;-71
2023/02/27 06:35:39;;;;;;;13.73;3.07;;;25.80;69.00;;;;;;5066318;28;20205;-72
2023/02/27 06:38:07;;;;;;;9.10;2.63;;;25.50;69.60;;;;;;5068191;28;20172;-71
2023/02/27 06:40:37;;;;;;;8.97;2.30;;;25.40;69.70;;;;;;5065888;28;20194;-67
2023/02/27 06:43:04;;;;;;;10.73;2.53;;;25.40;70.20;;;;;;5062919;28;20805;-69
2023/02/27 06:45:32;;;;;;;11.73;2.30;;;25.30;70.90;;;;;;5066010;28;20223;-74
2023/02/27 06:47:59;;;;;;;9.00;2.47;;;25.20;71.70;;;;;;5067604;28;20194;-71
2023/02/27 06:50:27;;;;;;;8.37;2.93;;;24.90;72.90;;;;;;5063980;28;20184;-72
2023/02/27 06:52:54;;;;;;;12.37;2.70;;;24.80;73.40;;;;;;5065183;28;20280;-72
2023/02/27 06:55:23;;;;;;;10.77;2.50;;;24.90;73.50;;;;;;5065246;28;20211;-72
2023/02/27 06:57:51;;;;;;;11.43;2.63;;;24.70;73.60;;;;;;5066134;28;20195;-73
2023/02/27 07:00:19;;;;;;;15.00;3.30;;;24.60;73.70;;;;;;5062819;28;20266;-72
2023/02/27 07:02:46;;;;;;;8.43;2.30;;;24.60;74.30;;;;;;5069899;28;20179;-71
2023/02/27 07:05:13;;;;;;;11.83;2.97;;;24.50;74.30;;;;;;5070576;28;20222;-72
2023/02/27 07:07:41;;;;;;;8.43;2.53;;;24.50;74.40;;;;;;5070314;28;20558;-69
2023/02/27 07:10:11;;;;;;;11.17;2.57;;;24.50;74.10;;;;;;5070998;28;20230;-71
2023/02/27 07:12:39;;;;;;;11.27;2.47;;;24.50;74.10;;;;;;5064199;28;20189;-72
2023/02/27 07:15:08;;;;;;;8.80;2.60;;;24.50;74.30;;;;;;5068804;28;20678;-72
2023/02/27 07:17:35;;;;;;;10.63;2.63;;;24.50;74.20;;;;;;5069079;28;20187;-70
2023/02/27 07:20:03;;;;;;;10.83;2.77;;;24.50;74.00;;;;;;5070603;28;20183;-71
2023/02/27 07:22:31;;;;;;;11.73;2.83;;;24.50;74.00;;;;;;5068099;28;20182;-71
2023/02/27 07:24:58;;;;;;;12.10;2.93;;;24.40;74.20;;;;;;5069940;28;20191;-71
2023/02/27 07:27:26;;;;;;;13.03;2.83;;;24.40;74.20;;;;;;5065621;28;20310;-73
2023/02/27 07:29:53;;;;;;;14.57;2.97;;;24.40;74.00;;;;;;5070495;28;20187;-74
2023/02/27 07:32:22;;;;;;;20.37;2.97;;;24.30;74.20;;;;;;5066904;28;20278;-68
2023/02/27 07:34:49;;;;;;;14.67;2.57;;;24.30;74.40;;;;;;5074226;28;20178;-70
2023/02/27 07:37:16;;;;;;;11.50;2.73;;;24.30;74.20;;;;;;5074798;28;20555;-68
2023/02/27 07:39:44;;;;;;;11.33;2.70;;;24.30;74.50;;;;;;5071065;28;20244;-71
2023/02/27 07:42:11;;;;;;;9.30;2.40;;;24.30;74.80;;;;;;5070959;28;20281;-70
2023/02/27 07:44:39;;;;;;;11.90;2.97;;;24.20;74.70;;;;;;5071888;28;20175;-71
2023/02/27 07:47:06;;;;;;;12.70;2.87;;;24.20;74.60;;;;;;5070623;28;20214;-73
2023/02/27 07:49:34;;;;;;;13.27;2.93;;;24.30;74.80;;;;;;5070971;28;20187;-72
2023/02/27 07:52:01;;;;;;;7.47;3.03;;;24.20;74.70;;;;;;5071438;28;20527;-67
2023/02/27 07:54:28;;;;;;;8.97;2.67;;;24.20;74.90;;;;;;5068309;28;20680;-69
2023/02/27 07:56:56;;;;;;;14.73;2.97;;;24.10;74.80;;;;;;5070639;28;20197;-67
2023/02/27 07:59:23;;;;;;;10.13;2.57;;;24.20;74.70;;;;;;5069221;28;20174;-68
2023/02/27 08:01:51;;;;;;;9.63;2.43;;;24.20;74.80;;;;;;5068340;28;20195;-68
2023/02/27 08:04:18;;;;;;;11.37;2.60;;;24.10;74.80;;;;;;5065580;28;20617;-71
2023/02/27 08:06:46;;;;;;;10.40;2.63;;;24.10;74.70;;;;;;5071347;28;20214;-70
2023/02/27 08:09:13;;;;;;;14.03;2.50;;;24.10;74.80;;;;;;5066150;28;20181;-71
2023/02/27 08:11:40;;;;;;;13.73;2.87;;;24.00;74.90;;;;;;5066711;28;20211;-68
2023/02/27 08:14:07;;;;;;;11.90;3.40;;;24.00;75.00;;;;;;5070000;28;20175;-71
2023/02/27 08:16:35;;;;;;;13.00;2.70;;;24.00;74.80;;;;;;5069956;28;20182;-68
2023/02/27 08:19:02;;;;;;;10.00;2.93;;;24.00;74.90;;;;;;5070461;28;20175;-69
2023/02/27 08:21:30;;;;;;;9.63;3.10;;;24.00;74.60;;;;;;5071712;28;20221;-68
2023/02/27 08:23:57;;;;;;;14.53;2.70;;;24.00;75.00;;;;;;5070842;28;20316;-71
2023/02/27 08:26:25;;;;;;;14.23;3.33;;;23.90;74.90;;;;;;5067827;28;20203;-68
2023/02/27 08:28:52;;;;;;;11.83;2.87;;;24.00;75.00;;;;;;5073699;28;20175;-68
2023/02/27 08:31:19;;;;;;;13.13;3.07;;;24.00;75.20;;;;;;5073335;28;20193;-71
2023/02/27 08:33:47;;;;;;;13.17;3.93;;;24.00;75.40;;;;;;5072899;28;20261;-72
2023/02/27 08:36:14;;;;;;;14.17;3.37;;;24.00;77.40;;;;;;5070269;28;20210;-70
2023/02/27 08:38:42;;;;;;;15.47;3.97;;;23.70;79.90;;;;;;5068021;28;20182;-68
2023/02/27 08:41:09;;;;;;;12.97;3.57;;;23.30;82.10;;;;;;5071861;28;20187;-71
2023/02/27 08:43:36;;;;;;;17.50;3.80;;;23.10;83.30;;;;;;5071794;28;20175;-71
2023/02/27 08:46:04;;;;;;;18.43;4.77;;;22.80;84.80;;;;;;5067738;28;20206;-71
2023/02/27 08:48:31;;;;;;;16.83;4.37;;;22.80;86.30;;;;;;5070571;28;20183;-72
2023/02/27 08:50:59;;;;;;;14.73;4.37;;;22.60;87.30;;;;;;5067544;28;20211;-71
2023/02/27 08:53:27;;;;;;;14.60;4.40;;;22.50;88.00;;;;;;5070247;28;20176;-71
2023/02/27 08:55:54;;;;;;;15.33;4.43;;;22.40;88.60;;;;;;5065813;28;20171;-70
2023/02/27 08:58:22;;;;;;;12.97;4.73;;;22.30;89.20;;;;;;5068027;28;20212;-70
2023/02/27 09:00:49;;;;;;;15.37;4.57;;;22.30;89.50;;;;;;5061303;28;20180;-70
2023/02/27 09:03:16;;;;;;;13.37;4.13;;;22.30;89.80;;;;;;5054160;28;20282;-72
2023/02/27 09:05:44;;;;;;;14.47;5.00;;;22.20;89.90;;;;;;5057743;28;20237;-72
2023/02/27 09:08:11;;;;;;;16.30;4.77;;;22.10;90.10;;;;;;5059916;28;20787;-72
2023/02/27 09:10:38;;;;;;;15.00;4.40;;;22.10;90.30;;;;;;5070134;28;20544;-72
2023/02/27 09:13:06;;;;;;;9.00;4.70;;;21.90;90.00;;;;;;5071946;28;20221;-72
2023/02/27 09:15:36;;;;;;;16.33;4.87;;;21.90;90.50;;;;;;5073634;28;20270;-73
2023/02/27 09:18:05;;;;;;;14.73;5.00;;;21.90;90.40;;;;;;5068093;28;20321;-71
2023/02/27 09:20:36;;;;;;;12.13;4.87;;;21.90;90.70;;;;;;5072416;28;20534;-72
2023/02/27 09:23:04;;;;;;;10.17;4.53;;;21.90;90.70;;;;;;5067857;28;20201;-72
2023/02/27 09:25:31;;;;;;;10.83;4.83;;;21.90;90.60;;;;;;5069803;28;20218;-70
2023/02/27 09:27:58;;;;;;;17.07;5.67;;;21.90;90.70;;;;;;5071892;28;20175;-72
2023/02/27 09:30:26;;;;;;;11.33;4.47;;;21.90;90.80;;;;;;5073661;28;20183;-73
2023/02/27 09:32:53;;;;;;;12.33;5.30;;;21.90;91.00;;;;;;5062407;28;20171;-72
2023/02/27 09:35:21;;;;;;;14.27;5.47;;;21.90;90.80;;;;;;5073032;28;20306;-73
2023/02/27 09:37:48;;;;;;;15.40;4.97;;;21.90;90.90;;;;;;5071462;28;20190;-73
2023/02/27 09:40:40;;;;;;;11.30;4.83;;;21.90;90.90;;;;;;5072124;28;20190;-71
2023/02/27 09:43:20;;;;;;;18.03;5.60;;;22.00;90.80;;;;;;5063784;28;20211;-72
2023/02/27 09:45:53;;;;;;;13.63;5.30;;;22.00;90.90;;;;;;5072175;28;20249;-73
2023/02/27 09:48:44;;;;;;;13.10;5.40;;;22.00;90.80;;;;;;5071504;28;20223;-70
2023/02/27 09:51:13;;;;;;;16.17;5.50;;;22.00;90.90;;;;;;5071487;28;20210;-71
2023/02/27 09:53:44;;;;;;;12.10;5.67;;;22.00;90.30;;;;;;5075284;28;20637;-72
2023/02/27 09:56:34;;;;;;;16.17;5.63;;;21.90;90.50;;;;;;5070209;28;20599;-70
2023/02/27 09:59:30;;;;;;;13.63;5.50;;;22.00;90.50;;;;;;5072504;28;20190;-70
2023/02/27 10:02:24;;;;;;;8.87;4.90;;;22.00;90.40;;;;;;5072075;28;20202;-71
2023/02/27 10:05:19;;;;;;;17.07;5.13;;;22.00;90.60;;;;;;5071156;28;20207;-72
2023/02/27 10:07:53;;;;;;;12.07;4.97;;;22.00;90.40;;;;;;5069804;28;20673;-72
2023/02/27 10:10:48;;;;;;;7.57;4.43;;;22.00;90.20;;;;;;5070103;28;20187;-72
2023/02/27 10:13:33;;;;;;;10.20;4.53;;;21.90;90.00;;;;;;5071010;28;20187;-72
2023/02/27 10:16:02;;;;;;;13.30;4.90;;;22.00;90.30;;;;;;5070504;28;20225;-71
2023/02/27 10:18:40;;;;;;;12.17;5.33;;;22.00;89.90;;;;;;5070084;28;20298;-71
2023/02/27 10:21:13;;;;;;;13.50;5.33;;;22.00;89.70;;;;;;5071449;28;20183;-72
2023/02/27 10:24:02;;;;;;;15.17;4.97;;;21.90;89.30;;;;;;5071507;28;20179;-70
2023/02/27 10:26:37;;;;;;;16.60;5.23;;;21.90;89.20;;;;;;5085915;28;20253;-70
2023/02/27 10:29:20;;;;;;;11.73;4.97;;;22.00;89.10;;;;;;5069225;28;20833;-71
2023/02/27 10:31:52;;;;;;;12.03;5.70;;;22.00;88.90;;;;;;5071905;28;20258;-72
2023/02/27 10:34:22;;;;;;;12.43;5.10;;;22.00;88.70;;;;;;5069645;28;20266;-71
2023/02/27 10:36:49;;;;;;;10.17;5.40;;;22.00;88.30;;;;;;5070278;28;20266;-71
2023/02/27 10:39:19;;;;;;;10.73;4.93;;;22.00;88.00;;;;;;5069764;28;20607;-69
2023/02/27 10:41:48;;;;;;;8.47;4.73;;;22.00;88.00;;;;;;5074730;28;20262;-69
2023/02/27 10:44:20;;;;;;;10.57;5.20;;;22.10;88.00;;;;;;5071159;28;20221;-67
2023/02/27 10:46:50;;;;;;;9.50;4.73;;;22.00;87.60;;;;;;5069962;28;20230;-70
2023/02/27 10:49:20;;;;;;;10.90;5.17;;;22.00;87.40;;;;;;5070514;28;20221;-70
2023/02/27 10:52:06;;;;;;;11.17;4.60;;;22.00;87.30;;;;;;5068569;28;20685;-67
2023/02/27 10:54:34;;;;;;;8.47;4.73;;;22.10;87.10;;;;;;5070827;28;20188;-68
2023/02/27 10:57:04;;;;;;;12.90;4.87;;;22.00;86.70;;;;;;5068705;28;20171;-67
2023/02/27 10:59:39;;;;;;;9.07;5.43;;;22.00;86.60;;;;;;5070147;28;20168;-67
2023/02/27 11:02:41;;;;;;;15.07;5.00;;;22.00;86.10;;;;;;5071434;28;20186;-70
2023/02/27 11:05:25;;;;;;;12.03;4.93;;;22.10;86.10;;;;;;5067314;28;20229;-69
2023/02/27 11:07:53;;;;;;;9.93;5.60;;;22.10;86.30;;;;;;5072294;28;20180;-70
2023/02/27 11:10:25;;;;;;;15.90;5.20;;;22.10;86.00;;;;;;5072065;28;20175;-69
2023/02/27 11:13:00;;;;;;;10.17;4.37;;;22.10;85.70;;;;;;5071609;28;20183;-69
2023/02/27 11:15:31;;;;;;;11.13;4.33;;;22.00;85.20;;;;;;5071098;28;20174;-69
2023/02/27 11:18:37;;;;;;;7.40;4.17;;;22.00;84.80;;;;;;5067634;28;20203;-69
2023/02/27 11:21:27;;;;;;;10.60;5.10;;;22.10;84.80;;;;;;4989403;28;20193;-70
2023/02/27 11:24:06;;;;;;;11.50;4.43;;;22.10;84.90;;;;;;4988744;28;20186;-70
2023/02/27 11:26:40;;;;;;;9.97;5.37;;;22.10;84.80;;;;;;5047617;28;20310;-70
2023/02/27 11:29:16;;;;;;;12.43;4.63;;;22.10;84.50;;;;;;5071366;28;20182;-69
2023/02/27 11:31:56;;;;;;;13.10;4.63;;;22.10;84.00;;;;;;5068081;28;20266;-71
2023/02/27 11:34:31;;;;;;;10.17;4.57;;;22.10;84.00;;;;;;5066916;28;20178;-72
2023/02/27 11:37:24;;;;;;;12.33;4.73;;;22.20;84.00;;;;;;5071242;28;20179;-70
2023/02/27 11:40:05;;;;;;;15.90;4.50;;;22.20;84.10;;;;;;5066298;28;20179;-71
2023/02/27 11:42:36;;;;;;;11.20;4.30;;;22.20;83.60;;;;;;5068110;28;20578;-71
2023/02/27 11:45:22;;;;;;;10.30;4.17;;;22.20;83.90;;;;;;5067382;28;20535;-71
2023/02/27 11:47:51;;;;;;;7.93;4.13;;;22.20;83.50;;;;;;5061987;28;20192;-71
2023/02/27 11:50:47;;;;;;;12.80;4.50;;;22.20;83.40;;;;;;5069447;28;20191;-71
2023/02/27 11:53:51;;;;;;;10.93;4.17;;;22.20;83.30;;;;;;5065843;28;20179;-70
2023/02/27 11:56:39;;;;;;;12.13;4.60;;;22.20;83.20;;;;;;5065950;28;20705;-70
2023/02/27 11:59:31;;;;;;;10.67;4.33;;;22.20;83.40;;;;;;5069846;28;20191;-70
2023/02/27 12:02:16;;;;;;;15.17;4.70;;;22.20;83.20;;;;;;5067603;28;20171;-70
2023/02/27 12:04:49;;;;;;;12.37;4.80;;;22.20;83.30;;;;;;5062714;28;20211;-70
2023/02/27 12:07:39;;;;;;;9.97;4.13;;;22.20;83.30;;;;;;5069392;28;20214;-70
2023/02/27 12:10:11;;;;;;;12.83;4.50;;;22.20;83.00;;;;;;5073694;28;20178;-70
2023/02/27 12:12:49;;;;;;;12.17;3.47;;;22.20;82.90;;;;;;5066548;28;20240;-70
2023/02/27 12:15:37;;;;;;;12.63;4.23;;;22.20;82.60;;;;;;5071603;28;20676;-70
2023/02/27 12:18:11;;;;;;;16.63;4.30;;;22.20;82.30;;;;;;5070499;28;20187;-69
2023/02/27 12:20:58;;;;;;;10.87;4.10;;;22.20;82.10;;;;;;5071004;28;20548;-69
2023/02/27 12:23:53;;;;;;;14.97;4.07;;;22.30;82.10;;;;;;5069193;28;20222;-70
2023/02/27 12:26:43;;;;;;;7.57;3.70;;;22.30;81.60;;;;;;5068346;28;20657;-69
2023/02/27 12:29:11;;;;;;;8.77;3.17;;;22.30;81.50;;;;;;5069727;28;20271;-71
2023/02/27 12:32:04;;;;;;;10.10;4.00;;;22.30;81.70;;;;;;5071655;28;20184;-70
2023/02/27 12:34:50;;;;;;;12.50;4.10;;;22.30;81.90;;;;;;5069280;28;20182;-69
2023/02/27 12:37:37;;;;;;;10.40;3.90;;;22.30;81.70;;;;;;5065791;28;20202;-69
2023/02/27 12:40:07;;;;;;;9.77;3.70;;;22.30;82.10;;;;;;5074427;28;20198;-69
2023/02/27 12:43:20;;;;;;;11.13;4.10;;;22.30;81.60;;;;;;5071913;28;20269;-70
2023/02/27 12:46:15;;;;;;;8.30;3.20;;;22.30;81.50;;;;;;5074491;28;20326;-70
2023/02/27 12:48:58;;;;;;;12.97;3.17;;;22.30;81.00;;;;;;5071994;28;20210;-69
2023/02/27 12:51:44;;;;;;;11.33;3.47;;;22.30;80.90;;;;;;5070132;28;20175;-72
2023/02/27 12:54:48;;;;;;;7.70;3.10;;;22.30;81.00;;;;;;5072043;28;20183;-71
2023/02/27 12:57:27;;;;;;;7.47;3.13;;;22.30;81.30;;;;;;5073622;28;20190;-71
2023/02/27 13:00:13;;;;;;;10.87;3.37;;;22.30;80.80;;;;;;5075739;28;20187;-70
2023/02/27 13:03:15;;;;;;;10.33;3.30;;;22.30;80.80;;;;;;5071510;28;20189;-70
2023/02/27 13:05:46;;;;;;;9.37;3.13;;;22.30;81.00;;;;;;5071053;28;20242;-69
2023/02/27 13:08:41;;;;;;;8.83;3.07;;;22.30;80.40;;;;;;5067384;28;20377;-71
2023/02/27 13:11:33;;;;;;;6.30;3.37;;;22.30;80.60;;;;;;5070121;28;20175;-71
2023/02/27 13:14:28;;;;;;;7.87;3.10;;;22.30;80.00;;;;;;5073094;28;20179;-72
2023/02/27 13:17:10;;;;;;;9.90;2.97;;;22.30;80.10;;;;;;5071333;28;20191;-72
2023/02/27 13:19:50;;;;;;;6.97;2.83;;;22.30;79.90;;;;;;5070211;28;20198;-70